Akutan, Alaska
Current Conditions -  °F | °C
As of 5:35 AM on Friday 31 Oct 2014 (Local Time) from PAUT Reporting Station
Overcast Overcast  
Wind Chill:   Ceiling: 4400
Heat Index:   Visibility: 10mi
Dew Point:   Wind: 22mph
Humidity: 62%   Direction: 260°W
Pressure: 29.03"   Gusts: 29mph
Location:  54.14°N, 165.77°W
Report Text: PAUT 311335Z AUTO 26019G25KT 10SM BKN044 OVC049 08/01 A2903 RMK AO2 T00810013
Loading
Personal Weather Stations






























Interactive Weather Map
Tropical Storm Tracking
New forecast layout! Learn more

10-Day Weather Forecast

Advertisements
Track Severe Weather on mobile